createdAt,value
2018-05-27T00:01:25.648Z,21.30
2018-05-27T00:03:53.125Z,21.30
2018-05-27T00:06:20.713Z,21.30
2018-05-27T00:08:48.160Z,21.20
2018-05-27T00:11:15.615Z,21.20
2018-05-27T00:13:43.066Z,21.20
2018-05-27T00:16:10.506Z,21.20
2018-05-27T00:18:37.950Z,21.10
2018-05-27T00:21:05.414Z,21.10
2018-05-27T00:23:33.630Z,21.10
2018-05-27T00:26:01.079Z,21.10
2018-05-27T00:28:28.516Z,21.10
2018-05-27T00:30:56.721Z,21.00
2018-05-27T00:33:24.166Z,21.00
2018-05-27T00:35:52.048Z,21.00
2018-05-27T00:38:19.530Z,21.00
2018-05-27T00:40:46.982Z,20.90
2018-05-27T00:43:14.462Z,20.90
2018-05-27T00:45:41.917Z,20.90
2018-05-27T00:48:09.363Z,20.90
2018-05-27T00:50:36.818Z,20.90
2018-05-27T00:53:04.245Z,20.90
2018-05-27T00:55:32.470Z,20.80
2018-05-27T00:57:59.901Z,20.80
2018-05-27T01:00:27.406Z,20.70
2018-05-27T01:02:54.840Z,20.70
2018-05-27T01:05:22.325Z,20.70
2018-05-27T01:07:49.794Z,20.70
2018-05-27T01:10:17.423Z,20.60
2018-05-27T01:12:44.912Z,20.60
2018-05-27T01:15:12.358Z,20.50
2018-05-27T01:17:39.803Z,20.40
2018-05-27T01:20:07.351Z,20.40
2018-05-27T01:22:35.551Z,20.30
2018-05-27T01:25:03.053Z,20.30
2018-05-27T01:27:30.500Z,20.30
2018-05-27T01:29:57.954Z,20.30
2018-05-27T01:32:25.434Z,20.30
2018-05-27T01:34:52.893Z,20.30
2018-05-27T01:37:20.374Z,20.30
2018-05-27T01:39:47.919Z,20.20
2018-05-27T01:42:15.393Z,20.20
2018-05-27T01:44:43.642Z,20.10
2018-05-27T01:47:11.090Z,20.10
2018-05-27T01:49:38.535Z,20.10
2018-05-27T01:52:06.034Z,20.10
2018-05-27T01:54:33.577Z,20.10
2018-05-27T01:57:01.067Z,20.00
2018-05-27T01:59:29.352Z,20.00
2018-05-27T02:01:56.791Z,20.00
2018-05-27T02:04:24.271Z,19.90
2018-05-27T02:06:51.734Z,19.90
2018-05-27T02:09:19.174Z,19.90
2018-05-27T02:11:46.740Z,19.90
2018-05-27T02:14:14.226Z,19.90
2018-05-27T02:16:41.702Z,19.90
2018-05-27T02:19:09.249Z,19.90
2018-05-27T02:21:36.738Z,19.90
2018-05-27T02:24:04.193Z,19.90
2018-05-27T02:26:31.634Z,19.80
2018-05-27T02:28:59.132Z,19.80
2018-05-27T02:31:26.534Z,19.80
2018-05-27T02:33:54.010Z,19.70
2018-05-27T02:36:21.463Z,19.70
2018-05-27T02:38:48.939Z,19.70
2018-05-27T02:41:16.367Z,19.60
2018-05-27T02:43:44.186Z,19.60
2018-05-27T02:46:11.625Z,19.60
2018-05-27T02:48:39.086Z,19.60
2018-05-27T02:51:06.542Z,19.50
2018-05-27T02:53:33.985Z,19.50
2018-05-27T02:56:01.488Z,19.50
2018-05-27T02:58:28.930Z,19.40
2018-05-27T03:00:56.403Z,19.40
2018-05-27T03:03:23.850Z,19.40
2018-05-27T03:05:51.304Z,19.40
2018-05-27T03:08:18.785Z,19.40
2018-05-27T03:10:46.347Z,19.40
2018-05-27T03:13:13.794Z,19.40
2018-05-27T03:15:41.255Z,19.40
2018-05-27T03:18:08.734Z,19.40
2018-05-27T03:20:37.010Z,19.40
2018-05-27T03:23:04.470Z,19.40
2018-05-27T03:25:31.929Z,19.40
2018-05-27T03:27:59.383Z,19.40
2018-05-27T03:30:26.830Z,19.30
2018-05-27T03:32:54.310Z,19.30
2018-05-27T03:35:21.920Z,19.30
2018-05-27T03:37:49.350Z,19.30
2018-05-27T03:40:17.106Z,19.30
2018-05-27T03:42:44.597Z,19.30
2018-05-27T03:45:12.108Z,19.30
2018-05-27T03:47:39.549Z,19.20
2018-05-27T03:50:07.746Z,19.20
2018-05-27T03:52:35.234Z,19.20
2018-05-27T03:55:02.722Z,19.20
2018-05-27T03:57:30.174Z,19.20
2018-05-27T03:59:57.612Z,19.20
2018-05-27T04:02:25.058Z,19.10
2018-05-27T04:05:04.445Z,19.20
2018-05-27T04:07:43.819Z,19.10
2018-05-27T04:10:11.306Z,19.10
2018-05-27T04:12:38.769Z,19.10
2018-05-27T04:15:06.236Z,19.20
2018-05-27T04:17:33.690Z,19.10
2018-05-27T04:20:01.262Z,19.20
2018-05-27T04:22:28.718Z,19.20
2018-05-27T04:24:56.259Z,19.20
2018-05-27T04:27:23.730Z,19.20
2018-05-27T04:29:51.202Z,19.20
2018-05-27T04:32:18.657Z,19.20
2018-05-27T04:34:46.102Z,19.20
2018-05-27T04:37:13.550Z,19.20
2018-05-27T04:39:40.983Z,19.20
2018-05-27T04:42:08.543Z,19.30
2018-05-27T04:44:36.074Z,19.30
2018-05-27T04:47:03.574Z,19.30
2018-05-27T04:49:31.790Z,19.30
2018-05-27T04:51:59.290Z,19.30
2018-05-27T04:54:26.842Z,19.30
2018-05-27T04:56:54.301Z,19.30
2018-05-27T04:59:21.738Z,19.30
2018-05-27T05:01:49.229Z,19.30
2018-05-27T05:04:16.666Z,19.40
2018-05-27T05:06:44.125Z,19.40
2018-05-27T05:09:11.557Z,19.50
2018-05-27T05:11:39.759Z,19.50
2018-05-27T05:14:07.254Z,19.50
2018-05-27T05:16:34.710Z,19.60
2018-05-27T05:19:02.178Z,19.60
2018-05-27T05:21:29.642Z,19.70
2018-05-27T05:23:57.173Z,19.80
2018-05-27T05:26:24.614Z,19.80
2018-05-27T05:28:52.814Z,19.80
2018-05-27T05:31:20.436Z,19.80
2018-05-27T05:33:47.978Z,19.80
2018-05-27T05:36:15.427Z,19.80
2018-05-27T05:38:42.927Z,19.90
2018-05-27T05:41:10.454Z,19.90
2018-05-27T05:43:37.935Z,19.90
2018-05-27T05:46:05.378Z,19.90
2018-05-27T05:48:32.829Z,19.90
2018-05-27T05:51:00.266Z,19.90
2018-05-27T05:53:27.786Z,19.90
2018-05-27T05:55:56.727Z,19.90
2018-05-27T05:58:24.175Z,19.90
2018-05-27T06:00:52.398Z,20.00
2018-05-27T06:03:19.854Z,19.90
2018-05-27T06:05:47.327Z,20.00
2018-05-27T06:08:14.766Z,20.00
2018-05-27T06:10:42.215Z,20.00
2018-05-27T06:13:09.662Z,20.10
2018-05-27T06:15:37.106Z,20.10
2018-05-27T06:18:04.629Z,20.10
2018-05-27T06:20:32.069Z,20.20
2018-05-27T06:22:59.546Z,20.20
2018-05-27T06:25:26.984Z,20.20
2018-05-27T06:27:54.435Z,20.30
2018-05-27T06:30:21.865Z,20.30
2018-05-27T06:32:49.398Z,20.40
2018-05-27T06:35:16.852Z,20.40
2018-05-27T06:37:44.397Z,20.50
2018-05-27T06:40:11.826Z,20.50
2018-05-27T06:42:40.039Z,20.60
2018-05-27T06:45:07.474Z,20.60
2018-05-27T06:47:35.778Z,20.80
2018-05-27T06:50:03.210Z,20.70
2018-05-27T06:52:31.454Z,20.90
2018-05-27T06:54:58.884Z,20.80
2018-05-27T06:57:26.339Z,20.90
2018-05-27T06:59:53.769Z,21.00
2018-05-27T07:02:22.006Z,21.20
2018-05-27T07:04:49.512Z,21.20
2018-05-27T07:07:16.890Z,21.30
2018-05-27T07:09:44.341Z,21.30
2018-05-27T07:12:12.635Z,21.50
2018-05-27T07:14:40.848Z,21.50
2018-05-27T07:17:08.307Z,21.50
2018-05-27T07:19:35.726Z,21.50
2018-05-27T07:22:03.926Z,21.60
2018-05-27T07:24:31.419Z,21.60
2018-05-27T07:26:58.853Z,21.70
2018-05-27T07:29:26.438Z,21.80
2018-05-27T07:31:53.938Z,21.90
2018-05-27T07:34:22.182Z,22.10
2018-05-27T07:36:49.673Z,22.20
2018-05-27T07:39:17.275Z,22.30
2018-05-27T07:41:44.700Z,22.40
2018-05-27T07:44:12.942Z,22.50
2018-05-27T07:46:40.447Z,22.40
2018-05-27T07:49:07.986Z,22.50
2018-05-27T07:51:35.466Z,22.50
2018-05-27T07:54:02.911Z,22.50
2018-05-27T07:56:32.038Z,22.80
2018-05-27T07:58:59.584Z,22.70
2018-05-27T08:01:27.889Z,22.90
2018-05-27T08:03:56.119Z,23.20
2018-05-27T08:06:23.551Z,23.20
2018-05-27T08:08:51.003Z,23.20
2018-05-27T08:11:18.540Z,23.40
2018-05-27T08:13:46.754Z,23.50
2018-05-27T08:16:14.320Z,23.50
2018-05-27T08:18:41.818Z,23.50
2018-05-27T08:21:09.248Z,23.60
2018-05-27T08:23:36.722Z,23.60
2018-05-27T08:26:04.210Z,23.60
2018-05-27T08:28:31.720Z,23.60
2018-05-27T08:30:59.222Z,23.60
2018-05-27T08:33:26.710Z,23.60
2018-05-27T08:35:54.258Z,23.60
2018-05-27T08:38:21.706Z,23.60
2018-05-27T08:40:49.262Z,23.70
2018-05-27T08:43:16.711Z,23.80
2018-05-27T08:45:44.190Z,23.80
2018-05-27T08:48:11.646Z,23.90
2018-05-27T08:50:39.090Z,23.80
2018-05-27T08:53:06.522Z,23.90
2018-05-27T08:55:34.748Z,23.90
2018-05-27T08:58:02.199Z,23.90
2018-05-27T09:00:29.640Z,24.00
2018-05-27T09:02:57.142Z,24.10
2018-05-27T09:05:24.582Z,24.20
2018-05-27T09:07:52.134Z,24.30
2018-05-27T09:10:19.639Z,24.30
2018-05-27T09:12:47.159Z,24.40
2018-05-27T09:15:14.689Z,24.40
2018-05-27T09:17:42.106Z,24.50
2018-05-27T09:20:09.563Z,24.60
2018-05-27T09:22:37.008Z,24.50
2018-05-27T09:25:04.607Z,24.60
2018-05-27T09:27:32.009Z,24.60
2018-05-27T09:30:00.233Z,24.60
2018-05-27T09:32:27.674Z,24.60
2018-05-27T09:34:55.238Z,24.70
2018-05-27T09:37:22.664Z,24.80
2018-05-27T09:39:50.882Z,24.80
2018-05-27T09:42:18.990Z,24.80
2018-05-27T09:44:46.550Z,24.80
2018-05-27T09:47:13.982Z,24.80
2018-05-27T09:49:41.431Z,24.70
2018-05-27T09:52:08.864Z,24.70
2018-05-27T09:54:37.072Z,24.90
2018-05-27T09:57:04.513Z,24.90
2018-05-27T09:59:32.718Z,25.00
2018-05-27T10:02:00.223Z,25.00
2018-05-27T10:04:27.713Z,25.00
2018-05-27T10:06:55.920Z,25.00
2018-05-27T10:09:23.411Z,25.00
2018-05-27T10:11:50.898Z,25.00
2018-05-27T10:14:18.322Z,25.00
2018-05-27T10:16:45.759Z,25.00
2018-05-27T10:19:13.218Z,24.90
2018-05-27T10:21:40.654Z,25.00
2018-05-27T10:24:08.859Z,25.20
2018-05-27T10:26:36.303Z,25.20
2018-05-27T10:29:04.511Z,25.30
2018-05-27T10:31:31.945Z,25.30
2018-05-27T10:34:00.148Z,25.30
2018-05-27T10:36:27.705Z,25.30
2018-05-27T10:38:55.194Z,25.30
2018-05-27T10:41:22.834Z,25.30
2018-05-27T10:43:50.366Z,25.30
2018-05-27T10:46:18.582Z,25.60
2018-05-27T10:48:46.010Z,25.60
2018-05-27T10:51:14.218Z,25.60
2018-05-27T10:53:41.662Z,25.60
2018-05-27T10:56:09.870Z,25.50
2018-05-27T10:58:37.326Z,25.40
2018-05-27T11:01:04.769Z,25.50
2018-05-27T11:03:32.202Z,25.70
2018-05-27T11:06:00.490Z,26.20
2018-05-27T11:08:27.858Z,26.20
2018-05-27T11:10:56.074Z,26.60
2018-05-27T11:13:23.515Z,26.60
2018-05-27T11:15:50.982Z,26.80
2018-05-27T11:18:18.418Z,26.90
2018-05-27T11:20:46.675Z,27.00
2018-05-27T11:23:14.074Z,27.00
2018-05-27T11:25:41.560Z,27.00
2018-05-27T11:28:08.987Z,27.00
2018-05-27T11:30:37.210Z,27.00
2018-05-27T11:33:04.642Z,27.00
2018-05-27T11:35:32.122Z,26.90
2018-05-27T11:37:59.540Z,26.90
2018-05-27T11:40:27.758Z,26.80
2018-05-27T11:42:55.202Z,26.80
2018-05-27T11:45:22.650Z,26.80
2018-05-27T11:47:50.090Z,26.70
2018-05-27T11:50:18.352Z,26.70
2018-05-27T11:52:45.786Z,26.70
2018-05-27T11:55:13.238Z,26.70
2018-05-27T11:57:40.674Z,26.70
2018-05-27T12:00:08.115Z,26.70
2018-05-27T12:02:35.562Z,26.70
2018-05-27T12:05:03.006Z,26.60
2018-05-27T12:07:30.456Z,26.50
2018-05-27T12:09:57.997Z,26.50
2018-05-27T12:12:25.504Z,26.40
2018-05-27T12:14:53.702Z,26.30
2018-05-27T12:17:21.146Z,26.30
2018-05-27T12:19:48.663Z,26.30
2018-05-27T12:22:16.098Z,26.30
2018-05-27T12:24:45.019Z,26.40
2018-05-27T12:27:12.451Z,26.40
2018-05-27T12:29:41.625Z,26.50
2018-05-27T12:32:09.043Z,26.50
2018-05-27T12:34:36.479Z,26.60
2018-05-27T12:37:04.699Z,26.70
2018-05-27T12:39:32.130Z,26.60
2018-05-27T12:41:59.575Z,26.80
2018-05-27T12:44:27.782Z,26.70
2018-05-27T12:46:55.235Z,26.70
2018-05-27T12:49:22.674Z,26.60
2018-05-27T12:51:50.879Z,26.40
2018-05-27T12:54:18.315Z,26.30
2018-05-27T12:56:46.522Z,26.30
2018-05-27T12:59:13.976Z,26.20
2018-05-27T13:01:41.414Z,26.10
2018-05-27T13:04:09.630Z,25.90
2018-05-27T13:06:37.118Z,26.00
2018-05-27T13:09:05.199Z,25.80
2018-05-27T13:11:32.646Z,25.70
2018-05-27T13:14:00.075Z,25.60
2018-05-27T13:16:27.671Z,25.50
2018-05-27T13:18:55.002Z,25.40
2018-05-27T13:21:22.490Z,25.30
2018-05-27T13:23:50.013Z,25.30
2018-05-27T13:26:17.410Z,25.30
2018-05-27T13:28:44.853Z,25.20
2018-05-27T13:31:12.344Z,25.20
2018-05-27T13:33:39.785Z,25.20
2018-05-27T13:36:07.231Z,25.20
2018-05-27T13:38:34.737Z,25.10
2018-05-27T13:41:02.175Z,25.00
2018-05-27T13:43:29.650Z,24.60
2018-05-27T13:45:57.185Z,24.20
2018-05-27T13:48:24.647Z,23.80
2018-05-27T13:50:52.074Z,23.50
2018-05-27T13:53:20.310Z,22.90
2018-05-27T13:55:47.746Z,22.90
2018-05-27T13:58:15.312Z,22.70
2018-05-27T14:00:42.802Z,22.60
2018-05-27T14:03:10.240Z,22.50
2018-05-27T14:05:37.686Z,22.40
2018-05-27T14:08:05.161Z,22.30
2018-05-27T14:10:32.641Z,22.30
2018-05-27T14:13:00.086Z,22.30
2018-05-27T14:15:27.517Z,22.20
2018-05-27T14:17:55.726Z,22.20
2018-05-27T14:20:23.267Z,22.20
2018-05-27T14:22:51.474Z,22.20
2018-05-27T14:25:18.929Z,22.20
2018-05-27T14:27:47.413Z,22.20
2018-05-27T14:30:14.902Z,22.20
2018-05-27T14:32:42.458Z,22.10
2018-05-27T14:35:09.899Z,22.00
2018-05-27T14:37:37.342Z,22.00
2018-05-27T14:40:04.830Z,22.00
2018-05-27T14:42:32.275Z,22.00
2018-05-27T14:44:59.723Z,22.00
2018-05-27T14:47:27.922Z,21.90
2018-05-27T14:49:55.358Z,21.90
2018-05-27T14:52:23.589Z,21.80
2018-05-27T14:54:51.026Z,21.80
2018-05-27T14:57:18.540Z,21.60
2018-05-27T14:59:45.967Z,21.50
2018-05-27T15:02:13.409Z,21.60
2018-05-27T15:04:40.857Z,21.60
2018-05-27T15:07:08.302Z,21.70
2018-05-27T15:09:36.502Z,21.90
2018-05-27T15:12:03.950Z,21.80
2018-05-27T15:14:31.382Z,21.80
2018-05-27T15:16:58.914Z,21.80
2018-05-27T15:19:26.366Z,21.70
2018-05-27T15:21:53.834Z,21.60
2018-05-27T15:24:21.278Z,21.60
2018-05-27T15:26:48.723Z,21.40
2018-05-27T15:29:16.165Z,21.20
2018-05-27T15:31:44.398Z,21.00
2018-05-27T15:34:11.850Z,21.00
2018-05-27T15:36:39.355Z,21.00
2018-05-27T15:39:06.894Z,21.00
2018-05-27T15:41:34.346Z,21.00
2018-05-27T15:44:01.887Z,20.90
2018-05-27T15:46:29.449Z,21.00
2018-05-27T15:48:56.977Z,21.00
2018-05-27T15:51:24.502Z,21.00
2018-05-27T15:53:52.033Z,21.00
2018-05-27T15:56:19.401Z,21.00
2018-05-27T15:58:46.841Z,20.90
2018-05-27T16:01:14.290Z,20.80
2018-05-27T16:03:42.502Z,20.80
2018-05-27T16:06:09.938Z,20.80
2018-05-27T16:08:38.157Z,20.90
2018-05-27T16:11:05.702Z,20.90
2018-05-27T16:13:33.143Z,20.80
2018-05-27T16:16:01.339Z,20.80
2018-05-27T16:18:28.778Z,20.80
2018-05-27T16:20:56.983Z,20.80
2018-05-27T16:23:24.439Z,20.80
2018-05-27T16:25:51.875Z,20.90
2018-05-27T16:28:20.083Z,20.80
2018-05-27T16:30:47.526Z,20.80
2018-05-27T16:33:14.971Z,20.80
2018-05-27T16:35:43.231Z,20.80
2018-05-27T16:38:10.770Z,20.70
2018-05-27T16:40:38.232Z,20.60
2018-05-27T16:43:05.682Z,20.70
2018-05-27T16:45:33.126Z,20.60
2018-05-27T16:48:00.586Z,20.50
2018-05-27T16:50:28.030Z,20.50
2018-05-27T16:52:55.478Z,20.60
2018-05-27T16:55:23.714Z,20.60
2018-05-27T16:57:51.162Z,20.60
2018-05-27T17:00:18.678Z,20.50
2018-05-27T17:02:46.201Z,20.50
2018-05-27T17:05:13.666Z,20.60
2018-05-27T17:07:41.134Z,20.60
2018-05-27T17:10:08.587Z,20.50
2018-05-27T17:12:36.038Z,20.50
2018-05-27T17:15:03.510Z,20.50
2018-05-27T17:17:30.982Z,20.50
2018-05-27T17:19:58.433Z,20.50
2018-05-27T17:22:25.884Z,20.40
2018-05-27T17:24:53.432Z,20.40
2018-05-27T17:27:20.867Z,20.50
2018-05-27T17:29:49.174Z,20.40
2018-05-27T17:32:16.625Z,20.40
2018-05-27T17:34:44.138Z,20.40
2018-05-27T17:37:11.574Z,20.40
2018-05-27T17:39:39.023Z,20.40
2018-05-27T17:42:06.462Z,20.40
2018-05-27T17:44:34.903Z,20.40
2018-05-27T17:47:02.390Z,20.40
2018-05-27T17:49:30.102Z,20.40
2018-05-27T17:51:57.525Z,20.30
2018-05-27T17:54:25.782Z,20.40
2018-05-27T17:56:53.259Z,20.40
2018-05-27T17:59:20.722Z,20.40
2018-05-27T18:01:48.982Z,20.50
2018-05-27T18:04:16.470Z,20.50
2018-05-27T18:06:43.882Z,20.50
2018-05-27T18:09:11.347Z,20.50
2018-05-27T18:11:38.782Z,20.50
2018-05-27T18:14:06.242Z,20.50
2018-05-27T18:16:33.735Z,20.50
2018-05-27T18:19:01.187Z,20.60
2018-05-27T18:21:28.649Z,20.60
2018-05-27T18:23:56.123Z,20.50
2018-05-27T18:26:23.578Z,20.60
2018-05-27T18:28:51.019Z,20.50
2018-05-27T18:31:18.494Z,20.50
2018-05-27T18:33:45.934Z,20.50
2018-05-27T18:36:13.411Z,20.50
2018-05-27T18:38:41.014Z,20.50
2018-05-27T18:41:08.398Z,20.40
2018-05-27T18:43:36.618Z,20.50
2018-05-27T18:46:04.070Z,20.40
2018-05-27T18:48:31.526Z,20.50
2018-05-27T18:50:59.024Z,20.40
2018-05-27T18:53:26.618Z,20.40
2018-05-27T18:55:54.030Z,20.30
2018-05-27T18:58:21.467Z,20.30
2018-05-27T19:00:49.034Z,20.20
2018-05-27T19:03:16.458Z,20.20
2018-05-27T19:05:44.674Z,20.20
2018-05-27T19:08:12.110Z,20.20
2018-05-27T19:10:40.343Z,20.10
2018-05-27T19:13:07.834Z,20.10
2018-05-27T19:15:35.362Z,20.10
2018-05-27T19:18:02.812Z,20.10
2018-05-27T19:20:30.263Z,20.10
2018-05-27T19:22:57.769Z,20.10
2018-05-27T19:25:25.394Z,20.10
2018-05-27T19:27:52.823Z,20.10
2018-05-27T19:30:21.067Z,20.00
2018-05-27T19:32:48.601Z,20.00
2018-05-27T19:35:16.038Z,20.10
2018-05-27T19:37:43.489Z,20.10
2018-05-27T19:40:11.703Z,20.00
2018-05-27T19:42:39.158Z,20.00
2018-05-27T19:45:06.595Z,20.00
2018-05-27T19:47:34.798Z,20.00
2018-05-27T19:50:02.263Z,20.00
2018-05-27T19:52:29.715Z,20.00
2018-05-27T19:54:57.161Z,20.00
2018-05-27T19:57:25.390Z,20.00
2018-05-27T19:59:52.954Z,20.00
2018-05-27T20:02:20.394Z,20.00
2018-05-27T20:04:47.848Z,19.90
2018-05-27T20:07:15.331Z,19.90
2018-05-27T20:09:42.775Z,19.90
2018-05-27T20:12:10.258Z,19.90
2018-05-27T20:14:37.726Z,19.90
2018-05-27T20:17:05.176Z,19.90
2018-05-27T20:19:32.614Z,19.80
2018-05-27T20:22:00.098Z,19.80
2018-05-27T20:24:27.546Z,19.80
2018-05-27T20:26:55.002Z,19.80
2018-05-27T20:29:22.440Z,19.80
2018-05-27T20:31:50.654Z,19.60
2018-05-27T20:34:18.098Z,19.60
2018-05-27T20:36:45.559Z,19.60
2018-05-27T20:39:13.018Z,19.60
2018-05-27T20:41:41.235Z,19.50
2018-05-27T20:44:08.670Z,19.50
2018-05-27T20:46:36.121Z,19.50
2018-05-27T20:49:03.570Z,19.40
2018-05-27T20:51:31.781Z,19.30
2018-05-27T20:53:59.227Z,19.30
2018-05-27T20:56:26.689Z,19.30
2018-05-27T20:58:54.126Z,19.30
2018-05-27T21:01:22.378Z,19.20
2018-05-27T21:03:49.821Z,19.20
2018-05-27T21:06:17.270Z,19.20
2018-05-27T21:08:44.717Z,19.20
2018-05-27T21:11:12.190Z,19.20
2018-05-27T21:13:39.614Z,19.20
2018-05-27T21:16:07.062Z,19.10
2018-05-27T21:18:35.272Z,19.00
2018-05-27T21:21:02.722Z,19.00
2018-05-27T21:23:30.171Z,19.00
2018-05-27T21:25:58.395Z,19.00
2018-05-27T21:28:26.214Z,19.00
2018-05-27T21:30:53.645Z,19.10
2018-05-27T21:33:21.164Z,19.10
2018-05-27T21:35:48.606Z,19.10
2018-05-27T21:38:16.050Z,19.00
2018-05-27T21:40:44.259Z,19.10
2018-05-27T21:43:11.702Z,19.00
2018-05-27T21:45:40.012Z,19.10
2018-05-27T21:48:07.453Z,19.10
2018-05-27T21:50:34.890Z,19.10
2018-05-27T21:53:03.212Z,18.90
2018-05-27T21:55:30.638Z,18.90
2018-05-27T21:57:58.854Z,18.80
2018-05-27T22:00:26.294Z,18.80
2018-05-27T22:02:53.744Z,18.90
2018-05-27T22:05:21.950Z,18.80
2018-05-27T22:07:49.407Z,18.80
2018-05-27T22:10:16.842Z,18.80
2018-05-27T22:12:45.055Z,18.70
2018-05-27T22:15:12.494Z,18.70
2018-05-27T22:17:39.946Z,18.70
2018-05-27T22:20:08.162Z,18.70
2018-05-27T22:22:35.715Z,18.60
2018-05-27T22:25:03.151Z,18.60
2018-05-27T22:27:31.366Z,18.70
2018-05-27T22:29:58.810Z,18.60
2018-05-27T22:32:26.258Z,18.70
2018-05-27T22:34:54.466Z,18.60
2018-05-27T22:37:21.910Z,18.60
2018-05-27T22:39:49.350Z,18.60
2018-05-27T22:42:17.561Z,18.50
2018-05-27T22:44:45.029Z,18.50
2018-05-27T22:47:12.726Z,18.50
2018-05-27T22:49:40.162Z,18.50
2018-05-27T22:52:07.633Z,18.50
2018-05-27T22:54:35.072Z,18.50
2018-05-27T22:57:02.520Z,18.50
2018-05-27T22:59:29.967Z,18.50
2018-05-27T23:01:58.271Z,18.40
2018-05-27T23:04:25.699Z,18.40
2018-05-27T23:06:53.910Z,18.40
2018-05-27T23:09:21.350Z,18.40
2018-05-27T23:11:49.560Z,18.40
2018-05-27T23:14:16.998Z,18.40
2018-05-27T23:16:44.446Z,18.40
2018-05-27T23:19:12.654Z,18.50
2018-05-27T23:21:40.086Z,18.40
2018-05-27T23:24:08.306Z,18.30
2018-05-27T23:26:35.747Z,18.30
2018-05-27T23:29:03.194Z,18.40
2018-05-27T23:31:31.397Z,18.40
2018-05-27T23:33:58.851Z,18.40
2018-05-27T23:36:26.312Z,18.40
2018-05-27T23:38:53.764Z,18.40
2018-05-27T23:41:21.214Z,18.30
2018-05-27T23:43:49.441Z,18.30
2018-05-27T23:46:16.887Z,18.30
2018-05-27T23:48:44.343Z,18.30
2018-05-27T23:51:11.803Z,18.30
2018-05-27T23:53:39.254Z,18.30
2018-05-27T23:56:06.694Z,18.20
2018-05-27T23:58:35.001Z,18.10
